createdAt,value
2019-05-11T00:01:01.019Z,100863.57
2019-05-11T00:03:33.844Z,100867.30
2019-05-11T00:06:08.521Z,100876.33
2019-05-11T00:08:48.831Z,100879.62
2019-05-11T00:11:25.452Z,100881.27
2019-05-11T00:13:58.811Z,100881.51
2019-05-11T00:16:31.880Z,100872.38
2019-05-11T00:19:03.185Z,100881.13
2019-05-11T00:21:34.880Z,100890.27
2019-05-11T00:24:09.865Z,100894.34
2019-05-11T00:26:42.035Z,100894.77
2019-05-11T00:29:15.457Z,100899.58
2019-05-11T00:31:48.618Z,100898.02
2019-05-11T00:34:20.177Z,100901.86
2019-05-11T00:36:51.663Z,100913.92
2019-05-11T00:39:24.341Z,100913.21
2019-05-11T00:41:57.929Z,100919.77
2019-05-11T00:44:29.440Z,100917.93
2019-05-11T00:47:00.004Z,100916.62
2019-05-11T00:49:32.148Z,100922.45
2019-05-11T00:52:04.795Z,100923.56
2019-05-11T00:54:38.412Z,100924.45
2019-05-11T00:57:11.142Z,100925.36
2019-05-11T00:59:43.521Z,100925.56
2019-05-11T01:02:16.058Z,100931.52
2019-05-11T01:04:48.633Z,100932.95
2019-05-11T01:07:20.722Z,100935.83
2019-05-11T01:09:53.565Z,100939.34
2019-05-11T01:12:29.292Z,100949.73
2019-05-11T01:15:01.504Z,100945.78
2019-05-11T01:17:33.997Z,100944.09
2019-05-11T01:20:06.965Z,100946.84
2019-05-11T01:22:38.508Z,100947.44
2019-05-11T01:25:11.615Z,100950.97
2019-05-11T01:27:44.545Z,100959.81
2019-05-11T01:30:17.434Z,100957.30
2019-05-11T01:32:50.352Z,100958.16
2019-05-11T01:35:22.736Z,100969.45
2019-05-11T01:37:55.079Z,100970.13
2019-05-11T01:40:28.297Z,100963.48
2019-05-11T01:43:00.627Z,100967.61
2019-05-11T01:45:32.114Z,100965.13
2019-05-11T01:48:02.653Z,100967.23
2019-05-11T01:50:34.324Z,100973.19
2019-05-11T01:53:06.452Z,100970.91
2019-05-11T01:55:38.762Z,100971.33
2019-05-11T01:58:11.351Z,100972.37
2019-05-11T02:00:43.733Z,100972.29
2019-05-11T02:03:19.231Z,100972.47
2019-05-11T02:05:51.861Z,100967.13
2019-05-11T02:08:24.837Z,100961.74
2019-05-11T02:11:13.731Z,100957.14
2019-05-11T02:13:31.361Z,100963.09
2019-05-11T02:16:03.252Z,100959.95
2019-05-11T02:18:36.930Z,100953.47
2019-05-11T02:21:10.127Z,100956.31
2019-05-11T02:23:43.097Z,100957.56
2019-05-11T02:26:18.450Z,100957.27
2019-05-11T02:28:50.345Z,100960.59
2019-05-11T02:31:22.301Z,100958.88
2019-05-11T02:33:56.157Z,100956.99
2019-05-11T02:36:28.636Z,100957.43
2019-05-11T02:39:01.304Z,100952.64
2019-05-11T02:41:36.938Z,100956.94
2019-05-11T02:44:08.585Z,100960.91
2019-05-11T02:46:41.142Z,100959.53
2019-05-11T02:49:13.321Z,100966.04
2019-05-11T02:51:45.943Z,100966.20
2019-05-11T02:54:18.843Z,100965.48
2019-05-11T02:56:51.744Z,100958.92
2019-05-11T02:59:29.473Z,100955.22
2019-05-11T03:01:59.413Z,100945.13
2019-05-11T03:04:34.894Z,100936.95
2019-05-11T03:07:08.051Z,100931.70
2019-05-11T03:09:41.120Z,100929.79
2019-05-11T03:12:14.092Z,100926.38
2019-05-11T03:14:46.337Z,100929.41
2019-05-11T03:17:20.663Z,100928.22
2019-05-11T03:19:52.537Z,100927.47
2019-05-11T03:22:25.736Z,100923.16
2019-05-11T03:24:57.760Z,100914.56
2019-05-11T03:27:29.951Z,100913.61
2019-05-11T03:30:02.458Z,100904.34
2019-05-11T03:32:35.250Z,100909.47
2019-05-11T03:35:08.871Z,100902.67
2019-05-11T03:37:42.527Z,100893.08
2019-05-11T03:40:15.431Z,100893.89
2019-05-11T03:42:48.087Z,100900.27
2019-05-11T03:45:20.290Z,100895.72
2019-05-11T03:47:52.683Z,100898.24
2019-05-11T03:50:28.321Z,100891.98
2019-05-11T03:53:01.321Z,100891.83
2019-05-11T03:55:34.251Z,100892.48
2019-05-11T03:58:06.735Z,100887.78
2019-05-11T04:00:39.649Z,100884.58
2019-05-11T04:03:11.952Z,100882.50
2019-05-11T04:05:48.069Z,100883.45
2019-05-11T04:08:20.741Z,100887.05
2019-05-11T04:10:53.797Z,100870.22
2019-05-11T04:13:26.254Z,100877.02
2019-05-11T04:15:58.971Z,100875.23
2019-05-11T04:18:31.695Z,100864.53
2019-05-11T04:21:05.197Z,100858.75
2019-05-11T04:23:37.232Z,100853.82
2019-05-11T04:26:09.866Z,100854.94
2019-05-11T04:28:42.282Z,100853.66
2019-05-11T04:31:14.830Z,100850.19
2019-05-11T04:33:50.383Z,100845.45
2019-05-11T04:36:22.616Z,100842.55
2019-05-11T04:38:54.141Z,100840.76
2019-05-11T04:41:24.939Z,100831.88
2019-05-11T04:43:56.583Z,100830.42
2019-05-11T04:46:28.373Z,100819.27
2019-05-11T04:49:04.983Z,100819.20
2019-05-11T04:51:39.148Z,100808.32
2019-05-11T04:54:11.825Z,100810.75
2019-05-11T04:56:44.772Z,100803.73
2019-05-11T04:59:17.439Z,100800.47
2019-05-11T05:01:49.159Z,100798.80
2019-05-11T05:04:22.370Z,100792.54
2019-05-11T05:06:59.747Z,100784.23
2019-05-11T05:09:28.174Z,100784.99
2019-05-11T05:12:00.246Z,100773.95
2019-05-11T05:14:32.935Z,100767.39
2019-05-11T05:17:05.689Z,100763.61
2019-05-11T05:19:38.622Z,100759.92
2019-05-11T05:22:11.254Z,100748.27
2019-05-11T05:24:44.235Z,100753.91
2019-05-11T05:27:16.386Z,100753.34
2019-05-11T05:29:49.188Z,100744.10
2019-05-11T05:32:21.328Z,100730.65
2019-05-11T05:34:54.288Z,100729.86
2019-05-11T05:37:26.348Z,100720.12
2019-05-11T05:39:58.657Z,100726.81
2019-05-11T05:42:30.910Z,100720.59
2019-05-11T05:45:03.691Z,100723.91
2019-05-11T05:47:38.183Z,100708.32
2019-05-11T05:50:11.172Z,100713.44
2019-05-11T05:52:44.036Z,100712.55
2019-05-11T05:55:16.750Z,100704.56
2019-05-11T05:57:49.075Z,100705.90
2019-05-11T06:00:21.765Z,100708.00
2019-05-11T06:02:53.887Z,100697.22
2019-05-11T06:05:26.273Z,100691.31
2019-05-11T06:07:59.050Z,100689.45
2019-05-11T06:10:31.906Z,100687.30
2019-05-11T06:13:06.794Z,100682.13
2019-05-11T06:15:39.203Z,100682.13
2019-05-11T06:18:11.718Z,100674.00
2019-05-11T06:20:44.374Z,100669.69
2019-05-11T06:23:17.336Z,100663.20
2019-05-11T06:25:50.028Z,100656.56
2019-05-11T06:28:26.207Z,100648.84
2019-05-11T06:30:58.820Z,100635.94
2019-05-11T06:33:31.135Z,100628.11
2019-05-11T06:36:03.776Z,100625.64
2019-05-11T06:38:36.857Z,100620.52
2019-05-11T06:41:12.823Z,100612.44
2019-05-11T06:44:00.676Z,100609.42
2019-05-11T06:46:18.894Z,100612.66
2019-05-11T06:48:51.804Z,100609.89
2019-05-11T06:51:28.013Z,100599.70
2019-05-11T06:54:00.575Z,100600.42
2019-05-11T06:56:32.930Z,100589.94
2019-05-11T06:59:05.778Z,100587.83
2019-05-11T07:01:38.395Z,100575.21
2019-05-11T07:04:11.375Z,100581.72
2019-05-11T07:06:43.634Z,100580.55
2019-05-11T07:09:16.010Z,100570.06
2019-05-11T07:11:48.873Z,100570.78
2019-05-11T07:14:21.634Z,100562.72
2019-05-11T07:16:58.006Z,100556.52
2019-05-11T07:19:30.798Z,100552.03
2019-05-11T07:22:04.400Z,100550.20
2019-05-11T07:24:37.815Z,100537.08
2019-05-11T07:27:09.948Z,100534.16
2019-05-11T07:29:43.604Z,100528.98
2019-05-11T07:32:23.056Z,100514.38
2019-05-11T07:34:50.479Z,100514.89
2019-05-11T07:37:24.447Z,100509.80
2019-05-11T07:39:58.068Z,100508.92
2019-05-11T07:42:31.129Z,100500.41
2019-05-11T07:45:04.799Z,100505.02
2019-05-11T07:47:38.068Z,100492.69
2019-05-11T07:50:12.691Z,100494.33
2019-05-11T07:52:45.555Z,100485.59
2019-05-11T07:55:21.327Z,100476.25
2019-05-11T07:57:53.490Z,100471.75
2019-05-11T08:00:28.051Z,100460.00
2019-05-11T08:03:01.301Z,100468.22
2019-05-11T08:05:34.920Z,100455.09
2019-05-11T08:08:08.690Z,100451.40
2019-05-11T08:10:41.675Z,100461.59
2019-05-11T09:01:21.130Z,100414.61
2019-05-11T09:03:53.630Z,100416.70
2019-05-11T09:06:28.292Z,100414.41
2019-05-11T09:09:00.158Z,100404.16
2019-05-11T09:11:32.519Z,100415.71
2019-05-11T09:14:04.884Z,100402.95
2019-05-11T09:16:41.833Z,100401.08
2019-05-11T09:19:13.917Z,100406.86
2019-05-11T09:21:48.233Z,100408.22
2019-05-11T09:24:20.406Z,100408.46
2019-05-11T09:26:54.139Z,100404.52
2019-05-11T09:29:28.209Z,100399.91
2019-05-11T09:32:01.142Z,100407.64
2019-05-11T09:34:33.335Z,100400.16
2019-05-11T09:37:07.774Z,100401.75
2019-05-11T09:39:42.279Z,100398.67
2019-05-11T09:42:14.362Z,100396.80
2019-05-11T09:44:50.924Z,100402.67
2019-05-11T09:47:23.808Z,100408.56
2019-05-11T09:49:58.295Z,100403.70
2019-05-11T09:52:32.609Z,100414.09
2019-05-11T09:55:09.098Z,100417.53
2019-05-11T09:57:42.188Z,100410.27
2019-05-11T10:00:15.009Z,100410.73
2019-05-11T10:02:48.773Z,100410.05
2019-05-11T10:05:21.410Z,100411.44
2019-05-11T10:07:54.653Z,100409.84
2019-05-11T10:10:28.943Z,100411.33
2019-05-11T10:13:01.374Z,100415.23
2019-05-11T10:15:33.711Z,100411.12
2019-05-11T10:18:08.697Z,100409.95
2019-05-11T10:20:41.361Z,100412.39
2019-05-11T10:23:14.437Z,100413.06
2019-05-11T10:25:48.088Z,100412.60
2019-05-11T10:28:21.479Z,100419.19
2019-05-11T10:30:53.981Z,100417.34
2019-05-11T10:33:28.127Z,100422.16
2019-05-11T10:36:03.393Z,100427.22
2019-05-11T10:38:38.053Z,100430.53
2019-05-11T10:41:11.098Z,100434.92
2019-05-11T10:43:48.866Z,100437.80
2019-05-11T10:46:23.574Z,100442.30
2019-05-11T10:48:54.987Z,100444.94
2019-05-11T10:51:28.794Z,100442.06
2019-05-11T10:54:00.825Z,100448.63
2019-05-11T10:56:33.297Z,100455.08
2019-05-11T10:59:07.858Z,100467.87
2019-05-11T11:01:39.517Z,100473.28
2019-05-11T11:04:11.725Z,100473.98
2019-05-11T11:06:44.489Z,100483.21
2019-05-11T11:09:17.867Z,100484.34
2019-05-11T11:11:50.146Z,100485.41
2019-05-11T11:14:23.353Z,100487.70
2019-05-11T11:16:58.147Z,100491.14
2019-05-11T11:19:29.575Z,100495.52
2019-05-11T11:22:30.272Z,100507.84
2019-05-11T11:24:39.010Z,100507.95
2019-05-11T11:27:11.098Z,100507.14
2019-05-11T11:29:44.286Z,100511.38
2019-05-11T11:32:18.236Z,100511.50
2019-05-11T11:34:50.240Z,100523.73
2019-05-11T11:40:08.396Z,100521.30
2019-05-11T11:42:41.860Z,100523.03
2019-05-11T11:45:14.612Z,100526.16
2019-05-11T11:47:49.316Z,100533.08
2019-05-11T11:50:21.235Z,100535.84
2019-05-11T11:52:54.703Z,100542.41
2019-05-11T11:55:28.990Z,100545.98
2019-05-11T11:58:01.060Z,100540.23
2019-05-11T12:00:33.114Z,100540.45
2019-05-11T12:03:07.852Z,100534.11
2019-05-11T12:05:39.738Z,100529.49
2019-05-11T12:08:15.417Z,100526.84
2019-05-11T12:10:48.517Z,100531.80
2019-05-11T12:13:21.051Z,100532.61
2019-05-11T12:16:02.613Z,100545.52
2019-05-11T12:18:38.195Z,100554.13
2019-05-11T12:21:10.114Z,100561.70
2019-05-11T12:23:42.726Z,100560.77
2019-05-11T12:26:15.045Z,100563.19
2019-05-11T12:28:49.048Z,100571.66
2019-05-11T12:31:20.656Z,100575.14
2019-05-11T12:33:52.466Z,100577.81
2019-05-11T12:36:25.295Z,100590.31
2019-05-11T12:38:58.034Z,100592.48
2019-05-11T12:41:30.847Z,100602.73
2019-05-11T12:44:03.491Z,100611.88
2019-05-11T12:46:39.393Z,100631.22
2019-05-11T12:49:10.979Z,100637.17
2019-05-11T12:51:43.148Z,100645.45
2019-05-11T12:54:14.719Z,100644.98
2019-05-11T12:56:48.995Z,100651.66
2019-05-11T12:59:21.060Z,100662.66
2019-05-11T13:01:53.241Z,100669.13
2019-05-11T13:04:28.207Z,100675.09
2019-05-11T13:07:00.667Z,100679.00
2019-05-11T13:09:33.118Z,100676.69
2019-05-11T13:12:05.513Z,100684.97
2019-05-11T13:14:38.225Z,100687.73
2019-05-11T13:17:13.239Z,100687.09
2019-05-11T13:19:49.581Z,100692.70
2019-05-11T13:22:21.889Z,100706.77
2019-05-11T13:24:54.547Z,100709.18
2019-05-11T13:27:28.357Z,100718.84
2019-05-11T13:30:00.615Z,100717.12
2019-05-11T13:32:32.375Z,100717.03
2019-05-11T13:35:03.665Z,100712.89
2019-05-11T13:37:38.691Z,100718.64
2019-05-11T13:40:15.685Z,100722.78
2019-05-11T13:42:49.018Z,100719.58
2019-05-11T13:45:21.290Z,100724.36
2019-05-11T13:47:58.469Z,100721.20
2019-05-11T13:50:29.610Z,100721.05
2019-05-11T13:53:02.421Z,100723.81
2019-05-11T13:55:35.020Z,100729.03
2019-05-11T13:58:08.356Z,100727.25
2019-05-11T14:00:40.951Z,100731.39
2019-05-11T14:03:14.066Z,100739.59
2019-05-11T14:05:48.328Z,100745.52
2019-05-11T14:08:19.951Z,100753.95
2019-05-11T14:10:52.941Z,100763.13
2019-05-11T14:13:25.298Z,100774.40
2019-05-11T14:15:58.660Z,100775.06
2019-05-11T14:18:31.698Z,100780.88
2019-05-11T14:21:04.181Z,100786.11
2019-05-11T14:23:38.783Z,100788.83
2019-05-11T14:26:11.371Z,100792.08
2019-05-11T14:28:43.217Z,100794.53
2019-05-11T14:31:15.593Z,100797.84
2019-05-11T14:33:48.848Z,100805.80
2019-05-11T14:36:21.572Z,100804.91
2019-05-11T14:38:57.703Z,100801.34
2019-05-11T14:41:29.869Z,100799.71
2019-05-11T14:44:04.555Z,100806.39
2019-05-11T14:46:39.886Z,100813.11
2019-05-11T14:49:11.777Z,100810.27
2019-05-11T14:51:45.112Z,100809.52
2019-05-11T14:54:18.845Z,100806.87
2019-05-11T14:56:50.799Z,100810.45
2019-05-11T14:59:23.143Z,100811.84
2019-05-11T15:01:55.299Z,100813.30
2019-05-11T15:04:28.639Z,100810.20
2019-05-11T15:07:01.542Z,100807.91
2019-05-11T15:09:34.174Z,100807.69
2019-05-11T15:12:08.557Z,100801.09
2019-05-11T15:14:43.527Z,100806.77
2019-05-11T15:17:15.867Z,100805.08
2019-05-11T15:19:48.846Z,100797.20
2019-05-11T15:22:21.769Z,100801.91
2019-05-11T15:24:58.798Z,100810.34
2019-05-11T15:27:30.933Z,100802.95
2019-05-11T15:30:07.872Z,100809.52
2019-05-11T15:32:40.034Z,100807.44
2019-05-11T15:35:13.519Z,100806.87
2019-05-11T15:37:47.938Z,100809.08
2019-05-11T15:40:24.123Z,100811.91
2019-05-11T15:42:59.970Z,100805.23
2019-05-11T15:45:32.714Z,100812.47
2019-05-11T15:48:58.541Z,100804.20
2019-05-11T15:51:20.093Z,100804.39
2019-05-11T15:53:58.709Z,100805.28
2019-05-11T15:56:38.323Z,100803.75
2019-05-11T15:59:12.232Z,100812.05
2019-05-11T16:01:45.730Z,100811.62
2019-05-11T16:04:27.955Z,100810.14
2019-05-11T16:07:08.363Z,100813.01
2019-05-11T16:09:45.920Z,100812.52
2019-05-11T16:12:20.684Z,100811.68
2019-05-11T16:14:52.924Z,100808.53
2019-05-11T16:17:25.285Z,100802.69
2019-05-11T16:19:58.534Z,100808.20
2019-05-11T16:22:31.173Z,100800.75
2019-05-11T16:25:03.767Z,100806.34
2019-05-11T16:30:34.106Z,100797.00
2019-05-11T16:33:08.719Z,100791.59
2019-05-11T16:35:42.032Z,100780.46
2019-05-11T16:38:23.082Z,100779.75
2019-05-11T16:40:58.321Z,100769.75
2019-05-11T16:43:30.258Z,100763.75
2019-05-11T16:46:09.050Z,100761.32
2019-05-11T16:48:41.903Z,100763.90
2019-05-11T16:51:17.751Z,100762.37
2019-05-11T16:53:50.196Z,100757.09
2019-05-11T16:56:24.077Z,100759.23
2019-05-11T16:58:58.928Z,100757.11
2019-05-11T17:01:32.425Z,100756.45
2019-05-11T17:04:05.574Z,100757.52
2019-05-11T17:06:38.790Z,100760.18
2019-05-11T17:09:11.660Z,100753.35
2019-05-11T17:11:51.293Z,100746.64
2019-05-11T17:14:28.176Z,100744.67
2019-05-11T17:17:01.391Z,100735.91
2019-05-11T17:19:43.729Z,100732.67
2019-05-11T17:22:11.171Z,100727.26
2019-05-11T17:24:43.691Z,100720.91
2019-05-11T17:27:17.826Z,100714.20
2019-05-11T17:29:59.117Z,100699.11
2019-05-11T17:32:30.839Z,100708.02
2019-05-11T17:35:02.889Z,100699.27
2019-05-11T17:37:37.872Z,100698.63
2019-05-11T17:40:10.830Z,100689.94
2019-05-11T17:42:43.572Z,100694.31
2019-05-11T17:45:19.049Z,100697.73
2019-05-11T17:47:51.018Z,100689.16
2019-05-11T17:50:23.645Z,100682.26
2019-05-11T17:52:56.438Z,100685.39
2019-05-11T17:55:29.500Z,100688.08
2019-05-11T17:58:02.589Z,100682.00
2019-05-11T18:00:34.704Z,100683.48
2019-05-11T18:03:11.014Z,100673.65
2019-05-11T18:05:45.201Z,100665.08
2019-05-11T18:08:19.097Z,100662.57
2019-05-11T18:10:52.336Z,100657.52
2019-05-11T18:13:27.722Z,100649.58
2019-05-11T18:16:00.028Z,100653.30
2019-05-11T18:18:33.398Z,100649.24
2019-05-11T18:21:10.357Z,100644.80
2019-05-11T18:23:48.017Z,100646.19
2019-05-11T18:26:28.617Z,100641.23
2019-05-11T18:29:02.374Z,100636.76
2019-05-11T18:31:42.909Z,100636.53
2019-05-11T18:34:23.107Z,100634.81
2019-05-11T18:37:02.951Z,100635.64
2019-05-11T18:39:35.408Z,100634.56
2019-05-11T18:42:08.843Z,100631.27
2019-05-11T18:44:41.745Z,100626.95
2019-05-11T18:47:13.860Z,100624.76
2019-05-11T18:49:48.472Z,100622.41
2019-05-11T18:52:20.965Z,100619.09
2019-05-11T18:54:57.914Z,100623.64
2019-05-11T18:57:31.955Z,100617.23
2019-05-11T19:00:05.117Z,100613.87
2019-05-11T19:02:45.188Z,100611.80
2019-05-11T19:05:18.055Z,100608.03
2019-05-11T19:07:58.451Z,100611.53
2019-05-11T19:10:31.085Z,100606.94
2019-05-11T19:13:09.367Z,100604.37
2019-05-11T19:15:43.425Z,100599.68
2019-05-11T19:18:17.921Z,100596.73
2019-05-11T19:20:50.656Z,100591.90
2019-05-11T19:23:23.753Z,100589.06
2019-05-11T19:25:57.876Z,100588.62
2019-05-11T19:28:30.655Z,100584.89
2019-05-11T19:31:11.148Z,100583.34
2019-05-11T19:33:45.680Z,100581.05
2019-05-11T19:36:17.401Z,100577.14
2019-05-11T19:38:50.386Z,100570.03
2019-05-11T19:41:23.365Z,100566.72
2019-05-11T19:43:57.734Z,100565.11
2019-05-11T19:46:42.836Z,100556.52
2019-05-11T19:49:15.849Z,100555.95
2019-05-11T19:51:48.837Z,100547.36
2019-05-11T19:54:21.458Z,100548.25
2019-05-11T19:56:53.731Z,100548.40
2019-05-11T19:59:28.001Z,100546.95
2019-05-11T20:02:05.280Z,100549.92
2019-05-11T20:04:45.199Z,100554.98
2019-05-11T20:07:18.464Z,100551.82
2019-05-11T20:09:51.818Z,100552.20
2019-05-11T20:12:31.939Z,100553.50
2019-05-11T20:15:08.088Z,100550.11
2019-05-11T20:17:40.088Z,100551.34
2019-05-11T20:20:13.023Z,100557.26
2019-05-11T20:22:47.957Z,100549.37
2019-05-11T20:25:19.477Z,100546.42
2019-05-11T20:27:58.949Z,100544.45
2019-05-11T20:30:38.372Z,100540.16
2019-05-11T20:33:12.569Z,100542.40
2019-05-11T20:35:48.827Z,100543.70
2019-05-11T20:38:21.262Z,100544.93
2019-05-11T20:40:53.889Z,100543.06
2019-05-11T20:43:28.102Z,100546.90
2019-05-11T20:46:04.036Z,100548.61
2019-05-11T20:48:38.247Z,100554.27
2019-05-11T20:51:10.312Z,100551.13
2019-05-11T20:53:46.210Z,100556.47
2019-05-11T20:56:17.991Z,100554.70
2019-05-11T20:58:52.212Z,100553.23
2019-05-11T21:01:28.652Z,100559.73
2019-05-11T21:04:08.834Z,100566.67
2019-05-11T21:06:48.764Z,100562.23
2019-05-11T21:09:21.137Z,100562.97
2019-05-11T21:11:54.077Z,100567.09
2019-05-11T21:14:34.218Z,100566.27
2019-05-11T21:17:09.025Z,100560.77
2019-05-11T21:19:58.073Z,100558.48
2019-05-11T21:22:30.922Z,100559.76
2019-05-11T21:25:05.070Z,100564.13
2019-05-11T21:27:38.782Z,100552.41
2019-05-11T21:30:12.402Z,100553.11
2019-05-11T21:32:48.200Z,100558.48
2019-05-11T21:35:21.724Z,100560.33
2019-05-11T21:37:54.289Z,100560.58
2019-05-11T21:40:28.971Z,100562.03
2019-05-11T21:43:00.506Z,100566.98
2019-05-11T21:45:33.147Z,100573.77
2019-05-11T21:48:06.082Z,100580.98
2019-05-11T21:50:39.528Z,100576.42
2019-05-11T21:53:12.409Z,100583.08
2019-05-11T21:55:45.141Z,100588.64
2019-05-11T21:58:18.560Z,100586.71
2019-05-11T22:00:52.739Z,100585.23
2019-05-11T22:03:28.106Z,100586.78
2019-05-11T22:06:03.274Z,100582.19
2019-05-11T22:08:42.647Z,100580.09
2019-05-11T22:11:14.969Z,100587.92
2019-05-11T22:13:50.689Z,100581.53
2019-05-11T22:16:23.161Z,100581.63
2019-05-11T22:18:57.965Z,100579.83
2019-05-11T22:21:31.141Z,100586.41
2019-05-11T22:24:03.577Z,100595.78
2019-05-11T22:26:37.962Z,100602.98
2019-05-11T22:29:09.956Z,100607.11
2019-05-11T22:31:52.457Z,100607.63
2019-05-11T22:34:31.749Z,100612.12
2019-05-11T22:37:12.135Z,100609.15
2019-05-11T22:39:44.862Z,100608.17
2019-05-11T22:42:18.435Z,100610.52
2019-05-11T22:44:54.013Z,100614.98
2019-05-11T22:47:28.473Z,100618.01
2019-05-11T22:50:08.775Z,100621.48
